Sunday, November 19, 2017, 5:30 AM EST
Back to Local

KFME, Fort Meade / Tipton

Location: Laurel, MD, United States Lat: 39.083
Local Time: 5:30 AM EST (10:30 GMT) Lon: -76.767
Time Zone: US/Eastern Elev: 150 ft

Show me the last for .
Show Coded

Time T Td Feel RH Dir Speed Gust Alt SLP Vis Weather Sky Remarks
2017-11-19 05:06 54 50 - 87 290° 20 31 29.42 - 10 SCT028 BKN047 OVC060 None
2017-11-19 04:45 55 52 - 87 260° 13 18 29.38 - 3 SCT018 BKN032 OVC070 None
2017-11-19 04:24 59 54 - 82 240° 15 23 29.35 - 10 SCT036 BKN070 OVC110 None
2017-11-19 04:06 59 54 - 82 220° 14 23 29.33 - 10 SCT060 OVC070 None
2017-11-19 03:45 57 54 - 87 210° 10 22 29.33 - 10 SCT070 SCT080 BKN120 None
2017-11-19 03:24 57 54 - 87 200° 10 18 29.33 - 10 CLR None
2017-11-19 03:06 55 54 - 93 200° 10 16 29.33 - 10 SCT120 None
2017-11-19 02:45 55 54 - 93 180° 9 - 29.34 - 10 SCT038 SCT075 BKN120 None
2017-11-19 02:24 55 54 - 93 200° 8 - 29.38 - 10 OVC040 None
2017-11-19 02:06 55 54 - 93 210° 8 - 29.39 - 7 BKN040 OVC060 None
2017-11-19 01:45 55 54 - 93 210° 9 - 29.39 - 4 SCT024 BKN042 OVC070 None
2017-11-19 01:24 57 54 - 87 210° 9 22 29.39 - 5 BKN042 BKN060 OVC100 None
2017-11-19 01:06 59 52 - 77 210° 12 18 29.40 - 10 SCT044 SCT065 OVC110 None
2017-11-19 00:45 61 50 - 67 210° 13 18 29.41 - 10 SCT033 SCT044 OVC110 None
2017-11-19 00:24 61 50 - 67 200° 9 21 29.42 - 10 BKN110 None
2017-11-19 00:06 61 50 - 67 200° 12 21 29.42 - 10 SCT110 None
2017-11-18 23:45 61 48 - 63 210° 15 24 29.42 - 10 CLR None
2017-11-18 23:24 61 48 - 63 200° 15 30 29.43 - 10 CLR None
2017-11-18 23:06 61 48 - 63 210° 13 24 29.44 - 10 CLR None
2017-11-18 22:45 61 48 - 63 220° 18 30 29.45 - 10 CLR None
2017-11-18 22:24 61 46 - 59 210° 20 26 29.47 - 10 CLR None
2017-11-18 22:06 61 46 - 59 210° 16 26 29.47 - 10 CLR None
2017-11-18 21:45 61 46 - 59 210° 18 29 29.48 - 10 CLR None
2017-11-18 21:24 59 46 - 62 180° 12 20 29.48 - 10 CLR None
2017-11-18 21:06 59 45 - 58 190° 10 17 29.50 - 10 CLR None
2017-11-18 20:45 59 45 - 58 190° 9 16 29.52 - 10 SCT120 None
2017-11-18 20:24 57 43 - 58 190° 9 18 29.53 - 10 SCT120 None
2017-11-18 20:06 57 43 - 58 200° 10 20 29.54 - 10 CLR None
2017-11-18 19:45 57 43 - 58 190° 8 16 29.55 - 10 CLR None
2017-11-18 19:24 55 43 - 62 200° 8 - 29.55 - 10 CLR None
2017-11-18 19:06 55 41 - 58 200° 10 - 29.55 - 10 CLR None
2017-11-18 18:45 54 41 - 62 190° 8 - 29.56 - 10 CLR None
2017-11-18 18:24 54 39 - 58 180° 6 - 29.59 - 10 SCT120 None
2017-11-18 18:06 54 39 - 58 180° 7 - 29.59 - 10 CLR None
2017-11-18 17:45 54 41 - 62 160° 6 - 29.60 - 10 CLR None
2017-11-18 17:24 54 41 - 62 180° 5 - 29.62 - 10 SCT100 None
2017-11-18 17:06 54 41 - 62 180° 3 - 29.62 - 10 SCT100 None
2017-11-18 16:45 54 41 - 62 170° 7 - 29.62 - 10 BKN100 None
2017-11-18 16:24 54 41 - 62 160° 8 - 29.62 - 10 SCT047 SCT060 OVC100 None
2017-11-18 16:06 55 39 - 54 190° 7 16 29.64 - 10 SCT047 SCT060 OVC100 None
2017-11-18 15:45 55 37 - 50 190° 3 - 29.65 - 10 BKN100 None
2017-11-18 15:24 55 37 - 50 220° 8 16 29.66 - 10 SCT110 None
2017-11-18 15:06 57 36 - 44 200° 12 18 29.66 - 10 OVC110 None
2017-11-18 14:45 59 36 - 41 220° 12 - 29.67 - 10 SCT120 None
2017-11-18 14:24 59 36 - 41 210° 13 17 29.67 - 10 SCT120 None
2017-11-18 14:06 59 36 - 41 210° 12 16 29.69 - 10 SCT120 None
2017-11-18 13:45 59 37 - 44 210° 10 22 29.71 - 10 CLR None
2017-11-18 13:24 59 37 - 44 220° 13 22 29.70 - 10 CLR None
2017-11-18 13:06 55 37 - 50 190° 8 - 29.72 - 10 SCT100 None
2017-11-18 12:45 55 36 - 47 190° 8 17 29.74 - 10 SCT100 SCT120 None
2017-11-18 12:24 54 36 - 50 190° 12 18 29.75 - 10 CLR None
2017-11-18 12:06 55 36 - 47 210° 15 18 29.77 - 10 CLR None
2017-11-18 11:45 54 36 - 50 220° 13 20 29.79 - 10 BKN090 None
2017-11-18 11:24 54 36 - 50 200° 10 16 29.81 - 10 BKN090 None
2017-11-18 11:06 52 36 - 53 190° 8 - 29.82 - 10 SCT090 None
2017-11-18 10:45 50 36 46 57 210° 9 - 29.84 - 10 SCT070 SCT090 None
2017-11-18 10:24 46 36 45 65 160° 3 - 29.85 - 10 CLR None
2017-11-18 10:06 45 36 - 70 - Calm - 29.86 - 10 CLR None
2017-11-18 09:45 43 36 40 75 170° 5 - 29.88 - 10 SCT090 None
2017-11-18 09:24 41 34 37 75 170° 6 - 29.89 - 10 SCT100 None
2017-11-18 09:06 39 34 35 80 170° 6 - 29.90 - 10 SCT100 None
2017-11-18 08:45 37 34 35 86 160° 3 - 29.91 - 10 CLR None
2017-11-18 08:24 36 34 33 93 170° 3 - 29.92 - 10 CLR None
2017-11-18 08:06 32 32 - 100 - Calm - 29.93 - 10 CLR None
2017-11-18 07:45 30 30 - 100 - Calm - 29.93 - 10 CLR None
2017-11-18 07:24 30 28 - 92 - Calm - 29.95 - 10 CLR None
2017-11-18 07:06 28 28 25 100 160° 3 - 29.95 - 10 CLR None
2017-11-18 06:45 28 28 - 100 - Calm - 29.97 - 10 CLR None
2017-11-18 06:24 28 28 25 100 190° 3 - 29.98 - 10 CLR None
2017-11-18 06:06 28 28 - 100 - Calm - 29.98 - 10 CLR None
2017-11-18 05:45 28 28 25 100 150° 3 - 29.98 - 10 CLR None

Support USWX by starting your Amazon purchase here.